createdAt,value
2023-05-05T00:00:11.996Z,95289.00
2023-05-05T00:01:11.151Z,95289.00
2023-05-05T00:02:11.198Z,95291.00
2023-05-05T00:03:11.247Z,95289.00
2023-05-05T00:04:11.207Z,95289.00
2023-05-05T00:05:11.167Z,95287.00
2023-05-05T00:06:11.167Z,95285.00
2023-05-05T00:07:11.527Z,95287.00
2023-05-05T00:08:11.146Z,95285.00
2023-05-05T00:09:11.163Z,95285.00
2023-05-05T00:10:11.186Z,95289.00
2023-05-05T00:11:11.156Z,95285.00
2023-05-05T00:12:11.529Z,95285.00
2023-05-05T00:13:11.225Z,95285.00
2023-05-05T00:14:11.185Z,95283.00
2023-05-05T00:15:11.176Z,95283.00
2023-05-05T00:16:11.181Z,95285.00
2023-05-05T00:17:11.234Z,95285.00
2023-05-05T00:18:11.147Z,95283.00
2023-05-05T00:19:11.184Z,95285.00
2023-05-05T00:20:11.204Z,95287.00
2023-05-05T00:21:11.239Z,95287.00
2023-05-05T00:22:11.144Z,95285.00
2023-05-05T00:23:11.169Z,95287.00
2023-05-05T00:24:11.177Z,95287.00
2023-05-05T00:25:11.161Z,95287.00
2023-05-05T00:26:11.181Z,95287.00
2023-05-05T00:27:11.143Z,95285.00
2023-05-05T00:28:11.151Z,95287.00
2023-05-05T00:29:11.166Z,95283.00
2023-05-05T00:30:11.165Z,95285.00
2023-05-05T00:31:11.197Z,95287.00
2023-05-05T00:32:11.180Z,95283.00
2023-05-05T00:33:11.171Z,95285.00
2023-05-05T00:34:11.152Z,95289.00
2023-05-05T00:35:11.163Z,95285.00
2023-05-05T00:36:11.160Z,95285.00
2023-05-05T00:37:11.201Z,95287.00
2023-05-05T00:38:11.161Z,95287.00
2023-05-05T00:39:11.173Z,95287.00
2023-05-05T00:40:11.177Z,95287.00
2023-05-05T00:41:11.185Z,95285.00
2023-05-05T00:42:11.579Z,95289.00
2023-05-05T00:43:11.175Z,95291.00
2023-05-05T00:44:11.178Z,95287.00
2023-05-05T00:45:11.166Z,95291.00
2023-05-05T00:46:11.232Z,95293.00
2023-05-05T00:47:11.543Z,95291.00
2023-05-05T00:48:11.280Z,95291.00
2023-05-05T00:49:11.209Z,95291.00
2023-05-05T00:50:11.204Z,95291.00
2023-05-05T00:51:11.214Z,95289.00
2023-05-05T00:52:11.198Z,95287.00
2023-05-05T00:53:11.199Z,95287.00
2023-05-05T00:54:11.201Z,95287.00
2023-05-05T00:55:11.217Z,95287.00
2023-05-05T00:56:11.218Z,95287.00
2023-05-05T00:57:11.231Z,95289.00
2023-05-05T00:58:11.260Z,95289.00
2023-05-05T00:59:11.205Z,95287.00
2023-05-05T01:00:11.212Z,95287.00
2023-05-05T01:01:11.283Z,95289.00
2023-05-05T01:02:11.252Z,95289.00
2023-05-05T01:03:11.359Z,95287.00
2023-05-05T01:04:11.240Z,95289.00
2023-05-05T01:05:11.270Z,95287.00
2023-05-05T01:06:11.285Z,95287.00
2023-05-05T01:07:11.286Z,95283.00
2023-05-05T01:08:11.272Z,95281.00
2023-05-05T01:09:11.281Z,95281.00
2023-05-05T01:10:19.814Z,95281.00
2023-05-05T01:11:12.294Z,95283.00
2023-05-05T01:12:11.343Z,95283.00
2023-05-05T01:13:11.355Z,95283.00
2023-05-05T01:14:11.290Z,95283.00
2023-05-05T01:15:11.251Z,95283.00
2023-05-05T01:16:11.304Z,95283.00
2023-05-05T01:17:11.262Z,95285.00
2023-05-05T01:18:11.237Z,95285.00
2023-05-05T01:19:11.218Z,95285.00
2023-05-05T01:20:11.288Z,95285.00
2023-05-05T01:21:11.265Z,95285.00
2023-05-05T01:22:11.230Z,95283.00
2023-05-05T01:23:11.202Z,95285.00
2023-05-05T01:24:11.227Z,95285.00
2023-05-05T01:25:11.229Z,95283.00
2023-05-05T01:26:11.208Z,95285.00
2023-05-05T01:27:11.209Z,95285.00
2023-05-05T01:28:11.203Z,95289.00
2023-05-05T01:29:11.217Z,95289.00
2023-05-05T01:30:11.173Z,95291.00
2023-05-05T01:31:11.177Z,95291.00
2023-05-05T01:32:11.183Z,95287.00
2023-05-05T01:33:11.130Z,95289.00
2023-05-05T01:34:11.142Z,95287.00
2023-05-05T01:35:11.129Z,95289.00
2023-05-05T01:36:11.131Z,95293.00
2023-05-05T01:37:11.122Z,95291.00
2023-05-05T01:38:11.106Z,95295.00
2023-05-05T01:39:11.096Z,95295.00
2023-05-05T01:40:11.108Z,95295.00
2023-05-05T01:41:11.094Z,95295.00
2023-05-05T01:42:11.096Z,95295.00
2023-05-05T01:43:11.095Z,95295.00
2023-05-05T01:44:11.096Z,95295.00
2023-05-05T01:45:11.072Z,95295.00
2023-05-05T01:46:11.103Z,95293.00
2023-05-05T01:47:11.038Z,95297.00
2023-05-05T01:48:11.065Z,95298.00
2023-05-05T01:49:11.090Z,95293.00
2023-05-05T01:50:11.092Z,95295.00
2023-05-05T01:51:11.102Z,95295.00
2023-05-05T01:52:11.101Z,95293.00
2023-05-05T01:53:11.128Z,95291.00
2023-05-05T01:54:11.150Z,95291.00
2023-05-05T01:55:11.108Z,95287.00
2023-05-05T01:56:11.172Z,95291.00
2023-05-05T01:57:11.130Z,95293.00
2023-05-05T01:58:11.174Z,95297.00
2023-05-05T01:59:11.181Z,95298.00
2023-05-05T02:00:11.308Z,95300.00
2023-05-05T02:01:11.241Z,95300.00
2023-05-05T02:02:11.267Z,95300.00
2023-05-05T02:03:11.367Z,95298.00
2023-05-05T02:04:11.222Z,95297.00
2023-05-05T02:05:11.261Z,95295.00
2023-05-05T02:06:11.278Z,95297.00
2023-05-05T02:07:11.303Z,95297.00
2023-05-05T02:08:11.566Z,95300.00
2023-05-05T02:09:11.328Z,95298.00
2023-05-05T02:10:11.422Z,95300.00
2023-05-05T02:11:11.320Z,95300.00
2023-05-05T02:12:11.415Z,95302.00
2023-05-05T02:13:11.513Z,95300.00
2023-05-05T02:14:11.392Z,95300.00
2023-05-05T02:15:11.421Z,95300.00
2023-05-05T02:16:11.470Z,95302.00
2023-05-05T02:17:11.407Z,95304.00
2023-05-05T02:18:11.480Z,95304.00
2023-05-05T02:19:11.460Z,95306.00
2023-05-05T02:20:11.506Z,95306.00
2023-05-05T02:21:11.512Z,95306.00
2023-05-05T02:22:11.520Z,95308.00
2023-05-05T02:23:11.534Z,95306.00
2023-05-05T02:24:11.567Z,95306.00
2023-05-05T02:25:11.592Z,95308.00
2023-05-05T02:26:11.616Z,95308.00
2023-05-05T02:27:11.580Z,95308.00
2023-05-05T02:28:12.097Z,95304.00
2023-05-05T02:29:11.635Z,95306.00
2023-05-05T02:30:11.662Z,95308.00
2023-05-05T02:31:11.699Z,95312.00
2023-05-05T02:32:11.656Z,95308.00
2023-05-05T02:33:11.704Z,95308.00
2023-05-05T02:34:11.732Z,95306.00
2023-05-05T02:35:11.728Z,95304.00
2023-05-05T02:36:11.717Z,95304.00
2023-05-05T02:37:11.729Z,95306.00
2023-05-05T02:38:11.757Z,95308.00
2023-05-05T02:39:11.775Z,95308.00
2023-05-05T02:40:11.781Z,95312.00
2023-05-05T02:41:11.793Z,95308.00
2023-05-05T02:42:11.802Z,95310.00
2023-05-05T02:43:11.844Z,95312.00
2023-05-05T02:44:11.816Z,95312.00
2023-05-05T02:45:11.869Z,95308.00
2023-05-05T02:46:11.893Z,95310.00
2023-05-05T02:47:11.859Z,95312.00
2023-05-05T02:48:11.916Z,95316.00
2023-05-05T02:49:11.919Z,95314.00
2023-05-05T02:50:11.922Z,95314.00
2023-05-05T02:51:11.950Z,95316.00
2023-05-05T02:52:11.930Z,95314.00
2023-05-05T02:53:11.992Z,95316.00
2023-05-05T02:54:11.978Z,95318.00
2023-05-05T02:55:11.992Z,95318.00
2023-05-05T02:56:12.034Z,95314.00
2023-05-05T02:57:12.040Z,95314.00
2023-05-05T02:58:12.047Z,95314.00
2023-05-05T02:59:13.850Z,95314.00
2023-05-05T03:00:12.063Z,95312.00
2023-05-05T03:01:12.129Z,95312.00
2023-05-05T03:02:12.050Z,95312.00
2023-05-05T03:03:12.104Z,95316.00
2023-05-05T03:04:12.010Z,95318.00
2023-05-05T03:05:12.060Z,95316.00
2023-05-05T03:06:11.992Z,95320.00
2023-05-05T03:07:12.008Z,95316.00
2023-05-05T03:08:11.986Z,95320.00
2023-05-05T03:09:11.966Z,95322.00
2023-05-05T03:10:11.982Z,95320.00
2023-05-05T03:11:11.946Z,95320.00
2023-05-05T03:12:11.976Z,95316.00
2023-05-05T03:13:12.005Z,95316.00
2023-05-05T03:14:11.952Z,95314.00
2023-05-05T03:15:11.920Z,95314.00
2023-05-05T03:16:11.967Z,95314.00
2023-05-05T03:17:11.974Z,95316.00
2023-05-05T03:18:11.932Z,95318.00
2023-05-05T03:19:11.921Z,95318.00
2023-05-05T03:20:11.935Z,95318.00
2023-05-05T03:21:11.910Z,95318.00
2023-05-05T03:22:11.900Z,95318.00
2023-05-05T03:23:11.866Z,95318.00
2023-05-05T03:24:11.894Z,95316.00
2023-05-05T03:25:11.876Z,95316.00
2023-05-05T03:26:11.874Z,95316.00
2023-05-05T03:27:11.870Z,95316.00
2023-05-05T03:28:11.880Z,95314.00
2023-05-05T03:29:11.864Z,95314.00
2023-05-05T03:30:11.866Z,95314.00
2023-05-05T03:31:11.829Z,95314.00
2023-05-05T03:32:11.846Z,95316.00
2023-05-05T03:33:11.834Z,95320.00
2023-05-05T03:34:11.829Z,95318.00
2023-05-05T03:35:11.792Z,95320.00
2023-05-05T03:36:11.841Z,95320.00
2023-05-05T03:37:11.804Z,95318.00
2023-05-05T03:38:11.785Z,95316.00
2023-05-05T03:39:11.788Z,95316.00
2023-05-05T03:40:11.779Z,95316.00
2023-05-05T03:41:11.747Z,95318.00
2023-05-05T03:42:11.821Z,95318.00
2023-05-05T03:43:11.770Z,95320.00
2023-05-05T03:44:11.815Z,95320.00
2023-05-05T03:45:11.756Z,95318.00
2023-05-05T03:46:11.796Z,95320.00
2023-05-05T03:47:11.734Z,95318.00
2023-05-05T03:48:11.742Z,95318.00
2023-05-05T03:49:11.709Z,95318.00
2023-05-05T03:50:11.688Z,95314.00
2023-05-05T03:51:11.704Z,95318.00
2023-05-05T03:52:12.648Z,95316.00
2023-05-05T03:53:11.678Z,95316.00
2023-05-05T03:54:11.698Z,95316.00
2023-05-05T03:55:11.680Z,95314.00
2023-05-05T03:56:11.665Z,95314.00
2023-05-05T03:57:11.705Z,95316.00
2023-05-05T03:58:11.659Z,95314.00
2023-05-05T03:59:11.657Z,95312.00
2023-05-05T04:00:11.663Z,95312.00
2023-05-05T04:01:11.666Z,95310.00
2023-05-05T04:02:11.690Z,95312.00
2023-05-05T04:03:11.741Z,95312.00
2023-05-05T04:04:11.670Z,95312.00
2023-05-05T04:05:11.635Z,95314.00
2023-05-05T04:06:11.603Z,95314.00
2023-05-05T04:07:11.570Z,95316.00
2023-05-05T04:08:11.627Z,95316.00
2023-05-05T04:09:11.579Z,95316.00
2023-05-05T04:10:11.571Z,95316.00
2023-05-05T04:11:11.568Z,95318.00
2023-05-05T04:12:11.562Z,95316.00
2023-05-05T04:13:11.640Z,95316.00
2023-05-05T04:14:11.564Z,95316.00
2023-05-05T04:15:11.537Z,95316.00
2023-05-05T04:16:11.584Z,95316.00
2023-05-05T04:17:11.518Z,95318.00
2023-05-05T04:18:11.603Z,95316.00
2023-05-05T04:19:11.516Z,95318.00
2023-05-05T04:20:11.498Z,95318.00
2023-05-05T04:21:11.512Z,95318.00
2023-05-05T04:22:11.475Z,95320.00
2023-05-05T04:23:11.476Z,95320.00
2023-05-05T04:24:11.497Z,95320.00
2023-05-05T04:25:11.488Z,95320.00
2023-05-05T04:26:11.470Z,95318.00
2023-05-05T04:27:11.443Z,95320.00
2023-05-05T04:28:11.458Z,95320.00
2023-05-05T04:29:11.404Z,95320.00
2023-05-05T04:30:11.447Z,95320.00
2023-05-05T04:31:11.444Z,95322.00
2023-05-05T04:32:11.422Z,95322.00
2023-05-05T04:33:11.422Z,95322.00
2023-05-05T04:34:11.392Z,95324.00
2023-05-05T04:35:11.386Z,95326.00
2023-05-05T04:36:11.402Z,95326.00
2023-05-05T04:37:11.379Z,95328.00
2023-05-05T04:38:11.385Z,95330.00
2023-05-05T04:39:11.369Z,95330.00
2023-05-05T04:40:11.361Z,95330.00
2023-05-05T04:41:11.350Z,95330.00
2023-05-05T04:42:11.333Z,95332.00
2023-05-05T04:43:11.366Z,95332.00
2023-05-05T04:44:11.321Z,95332.00
2023-05-05T04:45:11.333Z,95332.00
2023-05-05T04:46:11.363Z,95332.00
2023-05-05T04:47:12.601Z,95332.00
2023-05-05T04:48:11.302Z,95334.00
2023-05-05T04:49:11.295Z,95334.00
2023-05-05T04:50:11.376Z,95334.00
2023-05-05T04:51:11.315Z,95334.00
2023-05-05T04:52:11.254Z,95332.00
2023-05-05T04:53:11.283Z,95334.00
2023-05-05T04:54:11.272Z,95334.00
2023-05-05T04:55:11.265Z,95334.00
2023-05-05T04:56:11.235Z,95334.00
2023-05-05T04:57:11.251Z,95336.00
2023-05-05T04:58:11.243Z,95338.00
2023-05-05T04:59:11.204Z,95338.00
2023-05-05T05:00:11.320Z,95340.00
2023-05-05T05:01:11.224Z,95340.00
2023-05-05T05:02:11.233Z,95342.00
2023-05-05T05:03:11.292Z,95342.00
2023-05-05T05:04:11.190Z,95342.00
2023-05-05T05:05:11.241Z,95344.00
2023-05-05T05:06:11.175Z,95346.00
2023-05-05T05:07:11.190Z,95346.00
2023-05-05T05:08:11.146Z,95348.00
2023-05-05T05:09:11.154Z,95346.00
2023-05-05T05:10:11.295Z,95346.00
2023-05-05T05:11:11.123Z,95346.00
2023-05-05T05:12:11.160Z,95346.00
2023-05-05T05:13:12.791Z,95348.00
2023-05-05T05:14:11.122Z,95350.00
2023-05-05T05:15:11.163Z,95350.00
2023-05-05T05:16:11.135Z,95346.00
2023-05-05T05:17:11.113Z,95346.00
2023-05-05T05:18:11.092Z,95346.00
2023-05-05T05:19:11.098Z,95346.00
2023-05-05T05:20:11.363Z,95346.00
2023-05-05T05:21:11.091Z,95342.00
2023-05-05T05:22:11.092Z,95346.00
2023-05-05T05:23:11.042Z,95348.00
2023-05-05T05:24:11.065Z,95346.00
2023-05-05T05:25:11.047Z,95348.00
2023-05-05T05:26:11.048Z,95348.00
2023-05-05T05:27:11.024Z,95346.00
2023-05-05T05:28:11.187Z,95346.00
2023-05-05T05:29:11.038Z,95346.00
2023-05-05T05:30:11.067Z,95348.00
2023-05-05T05:31:11.099Z,95346.00
2023-05-05T05:32:11.139Z,95344.00
2023-05-05T05:33:11.184Z,95344.00
2023-05-05T05:34:12.810Z,95344.00
2023-05-05T05:35:11.156Z,95344.00
2023-05-05T05:36:11.188Z,95344.00
2023-05-05T05:37:11.217Z,95346.00
2023-05-05T05:38:11.769Z,95346.00
2023-05-05T05:39:11.254Z,95344.00
2023-05-05T05:40:11.311Z,95348.00
2023-05-05T05:41:11.317Z,95350.00
2023-05-05T05:42:11.299Z,95350.00
2023-05-05T05:43:11.365Z,95352.00
2023-05-05T05:44:11.359Z,95350.00
2023-05-05T05:45:11.427Z,95350.00
2023-05-05T05:46:11.404Z,95348.00
2023-05-05T05:47:11.419Z,95348.00
2023-05-05T05:48:11.515Z,95352.00
2023-05-05T05:49:11.460Z,95352.00
2023-05-05T05:50:11.576Z,95353.00
2023-05-05T05:51:11.473Z,95357.00
2023-05-05T05:52:11.540Z,95357.00
2023-05-05T05:53:11.533Z,95355.00
2023-05-05T05:54:11.549Z,95355.00
2023-05-05T05:55:11.541Z,95359.00
2023-05-05T05:56:11.550Z,95357.00
2023-05-05T05:57:11.530Z,95357.00
2023-05-05T05:58:11.526Z,95361.00
2023-05-05T05:59:11.590Z,95357.00
2023-05-05T06:00:11.639Z,95357.00
2023-05-05T06:01:11.693Z,95355.00
2023-05-05T06:02:11.743Z,95357.00
2023-05-05T06:03:11.854Z,95355.00
2023-05-05T06:04:12.206Z,95361.00
2023-05-05T06:05:11.911Z,95359.00
2023-05-05T06:06:11.970Z,95355.00
2023-05-05T06:07:11.985Z,95361.00
2023-05-05T06:08:12.061Z,95359.00
2023-05-05T06:09:12.187Z,95361.00
2023-05-05T06:10:26.419Z,95357.00
2023-05-05T06:11:13.149Z,95359.00
2023-05-05T06:12:12.133Z,95361.00
2023-05-05T06:13:12.173Z,95359.00
2023-05-05T06:14:12.181Z,95357.00
2023-05-05T06:15:12.094Z,95359.00
2023-05-05T06:16:12.180Z,95361.00
2023-05-05T06:17:12.079Z,95357.00
2023-05-05T06:18:12.159Z,95353.00
2023-05-05T06:19:12.200Z,95355.00
2023-05-05T06:20:12.077Z,95353.00
2023-05-05T06:21:12.060Z,95355.00
2023-05-05T06:22:12.074Z,95353.00
2023-05-05T06:23:12.053Z,95355.00
2023-05-05T06:24:12.195Z,95353.00
2023-05-05T06:25:12.063Z,95353.00
2023-05-05T06:26:12.028Z,95353.00
2023-05-05T06:27:12.019Z,95352.00
2023-05-05T06:28:12.024Z,95353.00
2023-05-05T06:29:12.416Z,95352.00
2023-05-05T06:30:12.002Z,95350.00
2023-05-05T06:31:11.995Z,95350.00
2023-05-05T06:32:12.014Z,95352.00
2023-05-05T06:33:11.959Z,95346.00
2023-05-05T06:34:12.175Z,95346.00
2023-05-05T06:35:11.959Z,95340.00
2023-05-05T06:36:12.027Z,95342.00
2023-05-05T06:37:11.962Z,95342.00
2023-05-05T06:38:12.009Z,95338.00
2023-05-05T06:39:13.540Z,95338.00
2023-05-05T06:40:12.210Z,95334.00
2023-05-05T06:41:12.283Z,95336.00
2023-05-05T06:42:12.277Z,95332.00
2023-05-05T06:43:12.357Z,95332.00
2023-05-05T06:44:12.431Z,95332.00
2023-05-05T06:45:12.474Z,95328.00
2023-05-05T06:46:12.581Z,95330.00
2023-05-05T06:47:12.589Z,95326.00
2023-05-05T06:48:12.667Z,95326.00
2023-05-05T06:49:12.713Z,95324.00
2023-05-05T06:50:12.760Z,95324.00
2023-05-05T06:51:12.819Z,95324.00
2023-05-05T06:52:12.888Z,95324.00
2023-05-05T06:53:12.941Z,95322.00
2023-05-05T06:54:12.955Z,95320.00
2023-05-05T06:55:13.010Z,95322.00
2023-05-05T06:56:13.034Z,95324.00
2023-05-05T06:57:13.105Z,95324.00
2023-05-05T06:58:13.217Z,95324.00
2023-05-05T06:59:13.218Z,95324.00
2023-05-05T07:00:13.281Z,95324.00
2023-05-05T07:01:13.431Z,95324.00
2023-05-05T07:02:14.213Z,95324.00
2023-05-05T07:03:13.552Z,95322.00
2023-05-05T07:04:13.580Z,95322.00
2023-05-05T07:05:13.522Z,95320.00
2023-05-05T07:06:13.537Z,95320.00
2023-05-05T07:07:13.586Z,95322.00
2023-05-05T07:08:13.555Z,95320.00
2023-05-05T07:09:14.721Z,95318.00
2023-05-05T07:10:13.570Z,95312.00
2023-05-05T07:11:13.572Z,95312.00
2023-05-05T07:12:13.561Z,95312.00
2023-05-05T07:13:13.654Z,95314.00
2023-05-05T07:14:13.673Z,95310.00
2023-05-05T07:15:26.564Z,95308.00
2023-05-05T07:16:14.554Z,95308.00
2023-05-05T07:17:13.548Z,95310.00
2023-05-05T07:18:13.516Z,95306.00
2023-05-05T07:19:13.550Z,95302.00
2023-05-05T07:20:13.493Z,95302.00
2023-05-05T07:21:13.500Z,95298.00
2023-05-05T07:22:13.501Z,95300.00
2023-05-05T07:23:13.487Z,95302.00
2023-05-05T07:24:13.463Z,95298.00
2023-05-05T07:25:13.506Z,95300.00
2023-05-05T07:26:13.466Z,95295.00
2023-05-05T07:27:13.488Z,95293.00
2023-05-05T07:28:13.486Z,95293.00
2023-05-05T07:29:13.757Z,95297.00
2023-05-05T07:30:17.323Z,95293.00
2023-05-05T07:31:14.446Z,95295.00
2023-05-05T07:32:13.477Z,95297.00
2023-05-05T07:33:13.456Z,95291.00
2023-05-05T07:34:13.422Z,95291.00
2023-05-05T07:35:13.449Z,95289.00
2023-05-05T07:36:13.407Z,95287.00
2023-05-05T07:37:13.420Z,95285.00
2023-05-05T07:38:13.394Z,95287.00
2023-05-05T07:39:15.323Z,95283.00
2023-05-05T07:40:13.377Z,95283.00
2023-05-05T07:41:13.366Z,95287.00
2023-05-05T07:42:13.336Z,95283.00
2023-05-05T07:43:13.358Z,95281.00
2023-05-05T07:44:13.333Z,95277.00
2023-05-05T07:45:13.343Z,95277.00
2023-05-05T07:46:13.552Z,95281.00
2023-05-05T07:47:13.368Z,95281.00
2023-05-05T07:48:13.325Z,95277.00
2023-05-05T07:49:13.311Z,95275.00
2023-05-05T07:50:13.291Z,95273.00
2023-05-05T07:51:13.317Z,95269.00
2023-05-05T07:52:13.292Z,95267.00
2023-05-05T07:53:15.087Z,95263.00
2023-05-05T07:54:13.260Z,95267.00
2023-05-05T07:55:13.369Z,95259.00
2023-05-05T07:56:13.280Z,95261.00
2023-05-05T07:57:13.257Z,95259.00
2023-05-05T07:58:13.254Z,95259.00
2023-05-05T07:59:13.732Z,95259.00
2023-05-05T08:00:13.253Z,95259.00
2023-05-05T08:01:13.245Z,95255.00
2023-05-05T08:02:13.322Z,95255.00
2023-05-05T08:03:13.285Z,95255.00
2023-05-05T08:04:13.336Z,95253.00
2023-05-05T08:05:13.243Z,95253.00
2023-05-05T08:06:13.283Z,95253.00
2023-05-05T08:07:13.261Z,95255.00
2023-05-05T08:08:13.293Z,95259.00
2023-05-05T08:09:13.296Z,95255.00
2023-05-05T08:10:13.327Z,95257.00
2023-05-05T08:11:13.337Z,95251.00
2023-05-05T08:12:13.352Z,95251.00
2023-05-05T08:13:13.486Z,95250.00
2023-05-05T08:14:13.442Z,95250.00
2023-05-05T08:15:13.452Z,95251.00
2023-05-05T08:16:13.511Z,95244.00
2023-05-05T08:17:13.533Z,95246.00
2023-05-05T08:18:13.695Z,95240.00
2023-05-05T08:19:27.551Z,95242.00
2023-05-05T08:20:14.578Z,95238.00
2023-05-05T08:21:13.559Z,95240.00
2023-05-05T08:22:13.567Z,95238.00
2023-05-05T08:23:13.606Z,95238.00
2023-05-05T08:24:13.750Z,95232.00
2023-05-05T08:25:13.529Z,95236.00
2023-05-05T08:26:13.505Z,95230.00
2023-05-05T08:27:13.494Z,95232.00
2023-05-05T08:28:13.485Z,95232.00
2023-05-05T08:29:13.742Z,95232.00
2023-05-05T08:30:13.556Z,95232.00
2023-05-05T08:31:13.541Z,95230.00
2023-05-05T08:32:13.511Z,95228.00
2023-05-05T08:33:13.538Z,95226.00
2023-05-05T08:34:13.813Z,95224.00
2023-05-05T08:35:13.762Z,95220.00
2023-05-05T08:36:13.572Z,95218.00
2023-05-05T08:37:13.646Z,95218.00
2023-05-05T08:38:13.645Z,95216.00
2023-05-05T08:39:13.764Z,95214.00
2023-05-05T08:40:13.722Z,95212.00
2023-05-05T08:41:13.788Z,95210.00
2023-05-05T08:42:19.639Z,95210.00
2023-05-05T08:43:14.798Z,95206.00
2023-05-05T08:44:13.806Z,95208.00
2023-05-05T08:45:13.791Z,95203.00
2023-05-05T08:46:13.803Z,95208.00
2023-05-05T08:47:13.795Z,95204.00
2023-05-05T08:48:13.777Z,95203.00
2023-05-05T08:49:13.738Z,95203.00
2023-05-05T08:50:13.837Z,95203.00
2023-05-05T08:51:13.755Z,95201.00
2023-05-05T08:52:13.795Z,95199.00
2023-05-05T08:53:13.760Z,95201.00
2023-05-05T08:54:13.772Z,95199.00
2023-05-05T08:55:13.729Z,95201.00
2023-05-05T08:56:13.721Z,95197.00
2023-05-05T08:57:13.698Z,95199.00
2023-05-05T08:58:13.771Z,95199.00
2023-05-05T08:59:13.792Z,95197.00
2023-05-05T09:00:13.782Z,95197.00
2023-05-05T09:01:13.883Z,95195.00
2023-05-05T09:02:13.906Z,95193.00
2023-05-05T09:03:13.834Z,95187.00
2023-05-05T09:04:13.862Z,95187.00
2023-05-05T09:05:13.869Z,95185.00
2023-05-05T09:06:13.979Z,95185.00
2023-05-05T09:07:13.930Z,95183.00
2023-05-05T09:08:13.863Z,95181.00
2023-05-05T09:09:13.868Z,95181.00
2023-05-05T09:10:13.858Z,95181.00
2023-05-05T09:11:13.846Z,95179.00
2023-05-05T09:12:13.866Z,95179.00
2023-05-05T09:13:13.988Z,95177.00
2023-05-05T09:14:13.863Z,95177.00
2023-05-05T09:15:13.868Z,95175.00
2023-05-05T09:16:13.872Z,95173.00
2023-05-05T09:17:13.827Z,95171.00
2023-05-05T09:18:13.874Z,95169.00
2023-05-05T09:19:14.304Z,95169.00
2023-05-05T09:20:13.865Z,95165.00
2023-05-05T09:21:13.860Z,95165.00
2023-05-05T09:22:13.996Z,95165.00
2023-05-05T09:23:13.874Z,95163.00
2023-05-05T09:24:13.898Z,95161.00
2023-05-05T09:25:13.889Z,95161.00
2023-05-05T09:26:13.896Z,95159.00
2023-05-05T09:27:13.904Z,95157.00
2023-05-05T09:28:13.920Z,95157.00
2023-05-05T09:29:13.896Z,95155.00
2023-05-05T09:30:13.933Z,95155.00
2023-05-05T09:31:14.046Z,95152.00
2023-05-05T09:32:13.921Z,95150.00
2023-05-05T09:33:13.961Z,95150.00
2023-05-05T09:34:13.924Z,95142.00
2023-05-05T09:35:13.947Z,95140.00
2023-05-05T09:36:13.961Z,95138.00
2023-05-05T09:37:13.946Z,95136.00
2023-05-05T09:38:13.962Z,95136.00
2023-05-05T09:39:14.273Z,95134.00
2023-05-05T09:40:13.933Z,95134.00
2023-05-05T09:41:13.956Z,95134.00
2023-05-05T09:42:13.947Z,95128.00
2023-05-05T09:43:14.001Z,95130.00
2023-05-05T09:44:14.003Z,95130.00
2023-05-05T09:45:13.966Z,95128.00
2023-05-05T09:46:14.056Z,95126.00
2023-05-05T09:47:26.098Z,95122.00
2023-05-05T09:48:15.022Z,95120.00
2023-05-05T09:49:14.013Z,95120.00
2023-05-05T09:50:14.026Z,95120.00
2023-05-05T09:51:14.036Z,95124.00
2023-05-05T09:52:13.969Z,95118.00
2023-05-05T09:53:13.964Z,95122.00
2023-05-05T09:54:14.142Z,95116.00
2023-05-05T09:55:14.273Z,95116.00
2023-05-05T09:56:13.950Z,95116.00
2023-05-05T09:57:13.978Z,95120.00
2023-05-05T09:58:13.943Z,95118.00
2023-05-05T09:59:13.902Z,95116.00
2023-05-05T10:00:13.927Z,95114.00
2023-05-05T10:01:13.924Z,95112.00
2023-05-05T10:02:13.923Z,95114.00
2023-05-05T10:03:13.886Z,95106.00
2023-05-05T10:04:13.909Z,95110.00
2023-05-05T10:05:14.370Z,95104.00
2023-05-05T10:06:14.056Z,95104.00
2023-05-05T10:07:14.089Z,95106.00
2023-05-05T10:08:14.142Z,95106.00
2023-05-05T10:09:14.222Z,95104.00
2023-05-05T10:10:14.370Z,95103.00
2023-05-05T10:11:14.323Z,95103.00
2023-05-05T10:12:14.395Z,95099.00
2023-05-05T10:13:14.509Z,95097.00
2023-05-05T10:14:14.482Z,95095.00
2023-05-05T10:15:14.517Z,95093.00
2023-05-05T10:16:14.631Z,95091.00
2023-05-05T10:17:14.652Z,95091.00
2023-05-05T10:18:14.722Z,95085.00
2023-05-05T10:19:14.712Z,95083.00
2023-05-05T10:20:14.772Z,95079.00
2023-05-05T10:21:14.793Z,95077.00
2023-05-05T10:22:14.881Z,95079.00
2023-05-05T10:23:14.935Z,95079.00
2023-05-05T10:24:14.966Z,95077.00
2023-05-05T10:25:15.317Z,95077.00
2023-05-05T10:26:15.119Z,95079.00
2023-05-05T10:27:15.135Z,95077.00
2023-05-05T10:28:15.159Z,95073.00
2023-05-05T10:29:15.225Z,95073.00
2023-05-05T10:30:15.313Z,95069.00
2023-05-05T10:31:25.259Z,95069.00
2023-05-05T10:32:40.628Z,95063.00
2023-05-05T10:33:31.143Z,95061.00
2023-05-05T10:34:16.357Z,95059.00
2023-05-05T10:35:15.323Z,95059.00
2023-05-05T10:36:15.253Z,95059.00
2023-05-05T10:37:15.269Z,95056.00
2023-05-05T10:38:15.249Z,95052.00
2023-05-05T10:39:15.248Z,95054.00
2023-05-05T10:40:15.329Z,95048.00
2023-05-05T10:41:15.227Z,95046.00
2023-05-05T10:42:15.734Z,95044.00
2023-05-05T10:43:15.209Z,95042.00
2023-05-05T10:44:15.398Z,95038.00
2023-05-05T10:45:15.358Z,95038.00
2023-05-05T10:46:15.290Z,95040.00
2023-05-05T10:47:15.181Z,95036.00
2023-05-05T10:48:15.228Z,95032.00
2023-05-05T10:49:15.182Z,95036.00
2023-05-05T10:50:15.394Z,95034.00
2023-05-05T10:51:23.876Z,95030.00
2023-05-05T10:52:16.164Z,95022.00
2023-05-05T10:53:15.143Z,95022.00
2023-05-05T10:54:15.226Z,95020.00
2023-05-05T10:55:15.342Z,95022.00
2023-05-05T10:56:15.118Z,95024.00
2023-05-05T10:57:15.141Z,95016.00
2023-05-05T10:58:15.193Z,95010.00
2023-05-05T10:59:15.124Z,95012.00
2023-05-05T11:00:15.357Z,95014.00
2023-05-05T11:01:15.161Z,95012.00
2023-05-05T11:02:15.148Z,95008.00
2023-05-05T11:03:15.295Z,95010.00
2023-05-05T11:04:15.251Z,95004.00
2023-05-05T11:05:15.443Z,95001.00
2023-05-05T11:06:15.339Z,95002.00
2023-05-05T11:07:15.297Z,94999.00
2023-05-05T11:08:15.307Z,94999.00
2023-05-05T11:09:15.321Z,94999.00
2023-05-05T11:10:15.989Z,94991.00
2023-05-05T11:11:15.330Z,94989.00
2023-05-05T11:12:15.343Z,94989.00
2023-05-05T11:13:15.400Z,94983.00
2023-05-05T11:14:15.310Z,94981.00
2023-05-05T11:15:15.814Z,94979.00
2023-05-05T11:16:15.351Z,94979.00
2023-05-05T11:17:15.339Z,94979.00
2023-05-05T11:18:15.381Z,94977.00
2023-05-05T11:19:15.361Z,94973.00
2023-05-05T11:20:15.813Z,94969.00
2023-05-05T11:21:15.501Z,94969.00
2023-05-05T11:22:16.350Z,94965.00
2023-05-05T11:23:16.698Z,94961.00
2023-05-05T11:24:15.349Z,94959.00
2023-05-05T11:25:15.848Z,94959.00
2023-05-05T11:26:15.385Z,94957.00
2023-05-05T11:27:15.357Z,94957.00
2023-05-05T11:28:15.323Z,94957.00
2023-05-05T11:29:15.327Z,94957.00
2023-05-05T11:30:15.399Z,94954.00
2023-05-05T11:31:15.367Z,94952.00
2023-05-05T11:32:15.294Z,94952.00
2023-05-05T11:33:15.282Z,94950.00
2023-05-05T11:34:15.300Z,94946.00
2023-05-05T11:35:15.333Z,94944.00
2023-05-05T11:36:15.269Z,94942.00
2023-05-05T11:37:15.293Z,94944.00
2023-05-05T11:38:15.249Z,94942.00
2023-05-05T11:39:15.257Z,94942.00
2023-05-05T11:40:15.320Z,94940.00
2023-05-05T11:41:15.306Z,94938.00
2023-05-05T11:42:15.359Z,94934.00
2023-05-05T11:43:15.429Z,94934.00
2023-05-05T11:44:15.428Z,94934.00